sensor_id;sensor_type;location;lat;lon;timestamp;temperature;humidity
285;DHT22;127;48.770;9.212;2023-06-24T00:00:31;15.40;99.90
285;DHT22;127;48.770;9.212;2023-06-24T00:02:59;15.40;99.90
285;DHT22;127;48.770;9.212;2023-06-24T00:05:28;15.40;99.90
285;DHT22;127;48.770;9.212;2023-06-24T00:08:00;15.40;99.90
285;DHT22;127;48.770;9.212;2023-06-24T00:10:32;15.40;99.90
285;DHT22;127;48.770;9.212;2023-06-24T00:13:04;15.30;99.90
285;DHT22;127;48.770;9.212;2023-06-24T00:15:36;15.30;99.90
285;DHT22;127;48.770;9.212;2023-06-24T00:18:08;15.30;99.90
285;DHT22;127;48.770;9.212;2023-06-24T00:20:37;15.30;99.90
285;DHT22;127;48.770;9.212;2023-06-24T00:23:08;15.30;99.90
285;DHT22;127;48.770;9.212;2023-06-24T00:25:40;15.30;99.90
285;DHT22;127;48.770;9.212;2023-06-24T00:28:09;15.30;99.90
285;DHT22;127;48.770;9.212;2023-06-24T00:30:52;15.20;99.90
285;DHT22;127;48.770;9.212;2023-06-24T00:33:22;15.20;99.90
285;DHT22;127;48.770;9.212;2023-06-24T00:35:52;15.20;99.90
285;DHT22;127;48.770;9.212;2023-06-24T00:38:23;15.20;99.90
285;DHT22;127;48.770;9.212;2023-06-24T00:40:52;15.20;99.90
285;DHT22;127;48.770;9.212;2023-06-24T00:43:21;15.10;99.90
285;DHT22;127;48.770;9.212;2023-06-24T00:45:53;15.10;99.90
285;DHT22;127;48.770;9.212;2023-06-24T00:48:22;15.00;99.90
285;DHT22;127;48.770;9.212;2023-06-24T00:50:50;15.10;99.90
285;DHT22;127;48.770;9.212;2023-06-24T00:53:22;15.00;99.90
285;DHT22;127;48.770;9.212;2023-06-24T00:55:51;15.00;99.90
285;DHT22;127;48.770;9.212;2023-06-24T00:58:20;14.90;99.90
285;DHT22;127;48.770;9.212;2023-06-24T01:00:52;14.90;99.90
285;DHT22;127;48.770;9.212;2023-06-24T01:03:25;14.80;99.90
285;DHT22;127;48.770;9.212;2023-06-24T01:05:55;14.70;99.90
285;DHT22;127;48.770;9.212;2023-06-24T01:08:27;14.70;99.90
285;DHT22;127;48.770;9.212;2023-06-24T01:10:55;14.70;99.90
285;DHT22;127;48.770;9.212;2023-06-24T01:13:24;14.60;99.90
285;DHT22;127;48.770;9.212;2023-06-24T01:15:57;14.50;99.90
285;DHT22;127;48.770;9.212;2023-06-24T01:18:32;14.50;99.90
285;DHT22;127;48.770;9.212;2023-06-24T01:21:06;14.40;99.90
285;DHT22;127;48.770;9.212;2023-06-24T01:23:56;14.30;99.90
285;DHT22;127;48.770;9.212;2023-06-24T01:26:39;14.30;99.90
285;DHT22;127;48.770;9.212;2023-06-24T01:29:38;14.30;99.90
285;DHT22;127;48.770;9.212;2023-06-24T01:32:17;14.30;99.90
285;DHT22;127;48.770;9.212;2023-06-24T01:34:55;14.30;99.90
285;DHT22;127;48.770;9.212;2023-06-24T01:37:29;14.30;99.90
285;DHT22;127;48.770;9.212;2023-06-24T01:40:05;14.30;99.90
285;DHT22;127;48.770;9.212;2023-06-24T01:42:39;14.30;99.90
285;DHT22;127;48.770;9.212;2023-06-24T01:45:12;14.30;99.90
285;DHT22;127;48.770;9.212;2023-06-24T01:47:47;14.40;99.90
285;DHT22;127;48.770;9.212;2023-06-24T01:50:20;14.50;99.90
285;DHT22;127;48.770;9.212;2023-06-24T01:52:51;14.40;99.90
285;DHT22;127;48.770;9.212;2023-06-24T01:55:24;14.40;99.90
285;DHT22;127;48.770;9.212;2023-06-24T01:57:55;14.40;99.90
285;DHT22;127;48.770;9.212;2023-06-24T02:00:25;14.40;99.90
285;DHT22;127;48.770;9.212;2023-06-24T02:02:57;14.40;99.90
285;DHT22;127;48.770;9.212;2023-06-24T02:05:27;14.40;99.90
285;DHT22;127;48.770;9.212;2023-06-24T02:07:57;14.30;99.90
285;DHT22;127;48.770;9.212;2023-06-24T02:10:27;14.30;99.90
285;DHT22;127;48.770;9.212;2023-06-24T02:12:57;14.40;99.90
285;DHT22;127;48.770;9.212;2023-06-24T02:15:28;14.40;99.90
285;DHT22;127;48.770;9.212;2023-06-24T02:18:01;14.50;99.90
285;DHT22;127;48.770;9.212;2023-06-24T02:20:32;14.50;99.90
285;DHT22;127;48.770;9.212;2023-06-24T02:23:01;14.50;99.90
285;DHT22;127;48.770;9.212;2023-06-24T02:25:31;14.40;99.90
285;DHT22;127;48.770;9.212;2023-06-24T02:28:00;14.40;99.90
285;DHT22;127;48.770;9.212;2023-06-24T02:30:29;14.30;99.90
285;DHT22;127;48.770;9.212;2023-06-24T02:33:02;14.20;99.90
285;DHT22;127;48.770;9.212;2023-06-24T02:35:31;14.30;99.90
285;DHT22;127;48.770;9.212;2023-06-24T02:37:59;14.30;99.90
285;DHT22;127;48.770;9.212;2023-06-24T02:40:28;14.30;99.90
285;DHT22;127;48.770;9.212;2023-06-24T02:42:59;14.20;99.90
285;DHT22;127;48.770;9.212;2023-06-24T02:45:28;14.20;99.90
285;DHT22;127;48.770;9.212;2023-06-24T02:48:00;14.20;99.90
285;DHT22;127;48.770;9.212;2023-06-24T02:50:31;14.20;99.90
285;DHT22;127;48.770;9.212;2023-06-24T02:53:01;14.20;99.90
285;DHT22;127;48.770;9.212;2023-06-24T02:55:30;14.10;99.90
285;DHT22;127;48.770;9.212;2023-06-24T02:58:02;14.20;99.90
285;DHT22;127;48.770;9.212;2023-06-24T03:00:33;14.20;99.90
285;DHT22;127;48.770;9.212;2023-06-24T03:03:05;14.20;99.90
285;DHT22;127;48.770;9.212;2023-06-24T03:05:35;15.40;99.90
285;DHT22;127;48.770;9.212;2023-06-24T03:08:04;14.10;99.90
285;DHT22;127;48.770;9.212;2023-06-24T03:10:33;14.10;99.90
285;DHT22;127;48.770;9.212;2023-06-24T03:13:04;14.10;99.90
285;DHT22;127;48.770;9.212;2023-06-24T03:15:40;14.10;99.90
285;DHT22;127;48.770;9.212;2023-06-24T03:18:11;14.00;99.90
285;DHT22;127;48.770;9.212;2023-06-24T03:20:39;14.00;99.90
285;DHT22;127;48.770;9.212;2023-06-24T03:23:08;14.00;99.90
285;DHT22;127;48.770;9.212;2023-06-24T03:25:37;14.00;99.90
285;DHT22;127;48.770;9.212;2023-06-24T03:28:06;14.00;99.90
285;DHT22;127;48.770;9.212;2023-06-24T03:30:35;14.00;99.90
285;DHT22;127;48.770;9.212;2023-06-24T03:33:04;14.00;99.90
285;DHT22;127;48.770;9.212;2023-06-24T03:35:35;13.90;99.90
285;DHT22;127;48.770;9.212;2023-06-24T03:38:03;14.00;99.90
285;DHT22;127;48.770;9.212;2023-06-24T03:40:32;14.00;99.90
285;DHT22;127;48.770;9.212;2023-06-24T03:43:01;14.00;99.90
285;DHT22;127;48.770;9.212;2023-06-24T03:45:29;14.00;99.90
285;DHT22;127;48.770;9.212;2023-06-24T03:47:58;14.10;99.90
285;DHT22;127;48.770;9.212;2023-06-24T03:50:26;14.20;99.90
285;DHT22;127;48.770;9.212;2023-06-24T03:52:58;14.20;99.90
285;DHT22;127;48.770;9.212;2023-06-24T03:55:27;14.30;99.90
285;DHT22;127;48.770;9.212;2023-06-24T03:57:55;14.40;99.90
285;DHT22;127;48.770;9.212;2023-06-24T04:00:25;14.40;99.90
285;DHT22;127;48.770;9.212;2023-06-24T04:02:54;14.50;99.90
285;DHT22;127;48.770;9.212;2023-06-24T04:05:27;14.50;99.90
285;DHT22;127;48.770;9.212;2023-06-24T04:08:00;14.50;99.90
285;DHT22;127;48.770;9.212;2023-06-24T04:10:31;14.50;99.90
285;DHT22;127;48.770;9.212;2023-06-24T04:13:00;14.60;99.90
285;DHT22;127;48.770;9.212;2023-06-24T04:15:28;14.60;99.90
285;DHT22;127;48.770;9.212;2023-06-24T04:17:57;14.80;99.90
285;DHT22;127;48.770;9.212;2023-06-24T04:22:54;15.10;99.90
285;DHT22;127;48.770;9.212;2023-06-24T04:25:26;15.10;99.90
285;DHT22;127;48.770;9.212;2023-06-24T04:27:54;15.20;99.90
285;DHT22;127;48.770;9.212;2023-06-24T04:30:23;15.30;99.90
285;DHT22;127;48.770;9.212;2023-06-24T04:32:52;15.30;99.90
285;DHT22;127;48.770;9.212;2023-06-24T04:35:20;15.30;99.90
285;DHT22;127;48.770;9.212;2023-06-24T04:37:49;15.40;99.90
285;DHT22;127;48.770;9.212;2023-06-24T04:40:18;15.50;99.90
285;DHT22;127;48.770;9.212;2023-06-24T04:42:53;15.50;99.90
285;DHT22;127;48.770;9.212;2023-06-24T04:45:22;15.50;99.90
285;DHT22;127;48.770;9.212;2023-06-24T04:50:20;15.50;99.90
285;DHT22;127;48.770;9.212;2023-06-24T04:52:52;15.60;99.90
285;DHT22;127;48.770;9.212;2023-06-24T04:55:27;15.60;99.90
285;DHT22;127;48.770;9.212;2023-06-24T04:58:01;15.60;99.90
285;DHT22;127;48.770;9.212;2023-06-24T05:00:30;15.70;99.90
285;DHT22;127;48.770;9.212;2023-06-24T05:02:58;15.70;99.90
285;DHT22;127;48.770;9.212;2023-06-24T05:05:29;15.80;99.90
285;DHT22;127;48.770;9.212;2023-06-24T05:07:58;15.80;99.90
285;DHT22;127;48.770;9.212;2023-06-24T05:10:30;15.80;99.90
285;DHT22;127;48.770;9.212;2023-06-24T05:13:05;15.80;99.90
285;DHT22;127;48.770;9.212;2023-06-24T05:15:33;17.30;99.90
285;DHT22;127;48.770;9.212;2023-06-24T05:18:02;16.00;99.90
285;DHT22;127;48.770;9.212;2023-06-24T05:20:31;16.00;99.90
285;DHT22;127;48.770;9.212;2023-06-24T05:23:01;15.90;99.90
285;DHT22;127;48.770;9.212;2023-06-24T05:25:31;16.10;99.90
285;DHT22;127;48.770;9.212;2023-06-24T05:28:03;16.20;99.90
285;DHT22;127;48.770;9.212;2023-06-24T05:30:32;16.30;99.90
285;DHT22;127;48.770;9.212;2023-06-24T05:33:01;16.40;99.90
285;DHT22;127;48.770;9.212;2023-06-24T05:35:29;16.50;99.90
285;DHT22;127;48.770;9.212;2023-06-24T05:37:58;16.60;99.90
285;DHT22;127;48.770;9.212;2023-06-24T05:40:26;16.70;99.90
285;DHT22;127;48.770;9.212;2023-06-24T05:42:55;16.80;99.90
285;DHT22;127;48.770;9.212;2023-06-24T05:45:26;16.90;99.90
285;DHT22;127;48.770;9.212;2023-06-24T05:47:55;17.30;99.90
285;DHT22;127;48.770;9.212;2023-06-24T05:50:24;17.10;99.90
285;DHT22;127;48.770;9.212;2023-06-24T05:52:52;17.20;99.90
285;DHT22;127;48.770;9.212;2023-06-24T05:55:21;17.20;99.90
285;DHT22;127;48.770;9.212;2023-06-24T05:57:49;17.40;99.90
285;DHT22;127;48.770;9.212;2023-06-24T06:00:19;17.50;99.90
285;DHT22;127;48.770;9.212;2023-06-24T06:02:50;17.60;99.90
285;DHT22;127;48.770;9.212;2023-06-24T06:05:18;17.80;99.90
285;DHT22;127;48.770;9.212;2023-06-24T06:07:47;17.90;99.90
285;DHT22;127;48.770;9.212;2023-06-24T06:10:16;18.00;99.90
285;DHT22;127;48.770;9.212;2023-06-24T06:12:45;18.00;99.90
285;DHT22;127;48.770;9.212;2023-06-24T06:15:15;18.10;99.90
285;DHT22;127;48.770;9.212;2023-06-24T06:17:45;18.20;99.90
285;DHT22;127;48.770;9.212;2023-06-24T06:20:16;18.30;99.90
285;DHT22;127;48.770;9.212;2023-06-24T06:22:45;18.40;99.90
285;DHT22;127;48.770;9.212;2023-06-24T06:25:14;18.40;99.90
285;DHT22;127;48.770;9.212;2023-06-24T06:27:43;18.40;99.90
285;DHT22;127;48.770;9.212;2023-06-24T06:30:16;18.60;99.90
285;DHT22;127;48.770;9.212;2023-06-24T06:32:46;18.60;99.90
285;DHT22;127;48.770;9.212;2023-06-24T06:35:20;18.70;99.90
285;DHT22;127;48.770;9.212;2023-06-24T06:37:51;18.80;99.90
285;DHT22;127;48.770;9.212;2023-06-24T06:40:20;18.90;99.90
285;DHT22;127;48.770;9.212;2023-06-24T06:42:50;19.00;99.90
285;DHT22;127;48.770;9.212;2023-06-24T06:45:28;19.10;99.90
285;DHT22;127;48.770;9.212;2023-06-24T06:47:57;19.30;99.90
285;DHT22;127;48.770;9.212;2023-06-24T06:50:28;19.40;99.90
285;DHT22;127;48.770;9.212;2023-06-24T06:52:57;19.40;99.90
285;DHT22;127;48.770;9.212;2023-06-24T06:55:26;19.50;99.90
285;DHT22;127;48.770;9.212;2023-06-24T06:57:55;19.40;99.90
285;DHT22;127;48.770;9.212;2023-06-24T07:00:25;19.50;99.90
285;DHT22;127;48.770;9.212;2023-06-24T07:02:54;19.70;99.90
285;DHT22;127;48.770;9.212;2023-06-24T07:05:22;19.80;99.90
285;DHT22;127;48.770;9.212;2023-06-24T07:07:54;19.80;99.90
285;DHT22;127;48.770;9.212;2023-06-24T07:10:26;19.90;99.90
285;DHT22;127;48.770;9.212;2023-06-24T07:12:58;20.00;99.90
285;DHT22;127;48.770;9.212;2023-06-24T07:15:31;20.10;99.90
285;DHT22;127;48.770;9.212;2023-06-24T07:18:00;20.30;99.90
285;DHT22;127;48.770;9.212;2023-06-24T07:20:33;20.30;99.90
285;DHT22;127;48.770;9.212;2023-06-24T07:23:07;20.50;99.90
285;DHT22;127;48.770;9.212;2023-06-24T07:25:37;20.50;99.90
285;DHT22;127;48.770;9.212;2023-06-24T07:28:06;20.60;99.90
285;DHT22;127;48.770;9.212;2023-06-24T07:30:36;20.70;99.90
285;DHT22;127;48.770;9.212;2023-06-24T07:33:04;20.90;99.90
285;DHT22;127;48.770;9.212;2023-06-24T07:35:34;21.00;99.90
285;DHT22;127;48.770;9.212;2023-06-24T07:38:07;21.00;99.90
285;DHT22;127;48.770;9.212;2023-06-24T07:40:39;21.10;99.90
285;DHT22;127;48.770;9.212;2023-06-24T07:43:14;21.20;99.90
285;DHT22;127;48.770;9.212;2023-06-24T07:45:47;21.40;99.90
285;DHT22;127;48.770;9.212;2023-06-24T07:48:16;21.60;99.90
285;DHT22;127;48.770;9.212;2023-06-24T07:50:44;21.60;99.90
285;DHT22;127;48.770;9.212;2023-06-24T07:53:15;21.60;99.90
285;DHT22;127;48.770;9.212;2023-06-24T07:55:48;21.80;99.90
285;DHT22;127;48.770;9.212;2023-06-24T07:58:19;21.90;99.90
285;DHT22;127;48.770;9.212;2023-06-24T08:00:54;21.90;99.90
285;DHT22;127;48.770;9.212;2023-06-24T08:03:25;22.30;99.90
285;DHT22;127;48.770;9.212;2023-06-24T08:05:53;22.30;99.90
285;DHT22;127;48.770;9.212;2023-06-24T08:08:30;22.40;99.90
285;DHT22;127;48.770;9.212;2023-06-24T08:11:09;22.50;99.90
285;DHT22;127;48.770;9.212;2023-06-24T08:13:37;22.30;99.90
285;DHT22;127;48.770;9.212;2023-06-24T08:16:09;22.40;99.90
285;DHT22;127;48.770;9.212;2023-06-24T08:18:37;22.50;99.90
285;DHT22;127;48.770;9.212;2023-06-24T08:21:15;22.50;99.90
285;DHT22;127;48.770;9.212;2023-06-24T08:23:47;22.70;99.90
285;DHT22;127;48.770;9.212;2023-06-24T08:26:21;22.90;99.90
285;DHT22;127;48.770;9.212;2023-06-24T08:28:50;23.10;99.90
285;DHT22;127;48.770;9.212;2023-06-24T08:31:23;23.00;99.90
285;DHT22;127;48.770;9.212;2023-06-24T08:33:52;23.00;99.90
285;DHT22;127;48.770;9.212;2023-06-24T08:39:08;23.10;99.90
285;DHT22;127;48.770;9.212;2023-06-24T08:41:37;23.40;99.90
285;DHT22;127;48.770;9.212;2023-06-24T08:44:06;23.70;99.90
285;DHT22;127;48.770;9.212;2023-06-24T08:46:36;23.80;99.90
285;DHT22;127;48.770;9.212;2023-06-24T08:49:10;24.10;99.90
285;DHT22;127;48.770;9.212;2023-06-24T08:51:47;24.30;99.90
285;DHT22;127;48.770;9.212;2023-06-24T08:54:28;24.40;99.90
285;DHT22;127;48.770;9.212;2023-06-24T08:57:07;24.30;99.90
285;DHT22;127;48.770;9.212;2023-06-24T08:59:40;24.50;99.90
285;DHT22;127;48.770;9.212;2023-06-24T09:02:09;24.40;99.90
285;DHT22;127;48.770;9.212;2023-06-24T09:04:40;24.40;99.90
285;DHT22;127;48.770;9.212;2023-06-24T09:07:09;24.60;99.90
285;DHT22;127;48.770;9.212;2023-06-24T09:09:45;24.90;99.90
285;DHT22;127;48.770;9.212;2023-06-24T09:12:14;25.20;99.90
285;DHT22;127;48.770;9.212;2023-06-24T09:14:48;25.60;99.90
285;DHT22;127;48.770;9.212;2023-06-24T09:17:17;26.00;99.90
285;DHT22;127;48.770;9.212;2023-06-24T09:19:48;26.40;99.90
285;DHT22;127;48.770;9.212;2023-06-24T09:22:17;26.60;99.90
285;DHT22;127;48.770;9.212;2023-06-24T09:24:49;27.10;99.90
285;DHT22;127;48.770;9.212;2023-06-24T09:27:18;27.50;99.90
285;DHT22;127;48.770;9.212;2023-06-24T09:29:50;27.80;99.90
285;DHT22;127;48.770;9.212;2023-06-24T09:32:18;28.50;99.90
285;DHT22;127;48.770;9.212;2023-06-24T09:34:47;29.00;99.90
285;DHT22;127;48.770;9.212;2023-06-24T09:37:21;29.70;99.90
285;DHT22;127;48.770;9.212;2023-06-24T09:39:59;30.40;99.90
285;DHT22;127;48.770;9.212;2023-06-24T09:42:30;31.10;99.90
285;DHT22;127;48.770;9.212;2023-06-24T09:44:59;31.50;99.90
285;DHT22;127;48.770;9.212;2023-06-24T09:47:32;31.90;99.90
285;DHT22;127;48.770;9.212;2023-06-24T09:50:01;32.60;99.90
285;DHT22;127;48.770;9.212;2023-06-24T09:52:31;33.40;99.90
285;DHT22;127;48.770;9.212;2023-06-24T09:55:03;34.20;99.90
285;DHT22;127;48.770;9.212;2023-06-24T09:57:32;34.00;99.90
285;DHT22;127;48.770;9.212;2023-06-24T10:00:02;34.60;99.90
285;DHT22;127;48.770;9.212;2023-06-24T10:02:32;34.10;99.90
285;DHT22;127;48.770;9.212;2023-06-24T10:05:01;34.10;99.90
285;DHT22;127;48.770;9.212;2023-06-24T10:07:31;35.40;99.90
285;DHT22;127;48.770;9.212;2023-06-24T10:10:06;35.40;99.90
285;DHT22;127;48.770;9.212;2023-06-24T10:12:36;34.90;99.90
285;DHT22;127;48.770;9.212;2023-06-24T10:15:06;34.70;99.90
285;DHT22;127;48.770;9.212;2023-06-24T10:17:34;34.40;99.90
285;DHT22;127;48.770;9.212;2023-06-24T10:20:04;35.00;99.90
285;DHT22;127;48.770;9.212;2023-06-24T10:22:34;33.80;99.90
285;DHT22;127;48.770;9.212;2023-06-24T10:25:06;34.50;99.90
285;DHT22;127;48.770;9.212;2023-06-24T10:27:39;35.40;99.90
285;DHT22;127;48.770;9.212;2023-06-24T10:30:09;36.60;99.90
285;DHT22;127;48.770;9.212;2023-06-24T10:32:44;36.60;99.90
285;DHT22;127;48.770;9.212;2023-06-24T10:35:24;34.00;99.90
285;DHT22;127;48.770;9.212;2023-06-24T10:37:56;33.80;99.90
285;DHT22;127;48.770;9.212;2023-06-24T10:40:40;34.10;99.90
285;DHT22;127;48.770;9.212;2023-06-24T10:43:25;35.00;99.90
285;DHT22;127;48.770;9.212;2023-06-24T10:45:56;34.90;99.90
285;DHT22;127;48.770;9.212;2023-06-24T10:48:25;34.30;99.90
285;DHT22;127;48.770;9.212;2023-06-24T10:50:54;33.30;99.90
285;DHT22;127;48.770;9.212;2023-06-24T10:53:22;32.80;99.90
285;DHT22;127;48.770;9.212;2023-06-24T10:55:59;34.20;99.90
285;DHT22;127;48.770;9.212;2023-06-24T10:58:28;33.80;99.90
285;DHT22;127;48.770;9.212;2023-06-24T11:01:06;32.90;99.90
285;DHT22;127;48.770;9.212;2023-06-24T11:03:36;32.40;99.90
285;DHT22;127;48.770;9.212;2023-06-24T11:06:10;33.10;99.90
285;DHT22;127;48.770;9.212;2023-06-24T11:08:43;33.70;99.90
285;DHT22;127;48.770;9.212;2023-06-24T11:11:21;34.00;99.90
285;DHT22;127;48.770;9.212;2023-06-24T11:13:51;33.30;99.90
285;DHT22;127;48.770;9.212;2023-06-24T11:16:21;35.50;99.90
285;DHT22;127;48.770;9.212;2023-06-24T11:18:50;36.40;99.90
285;DHT22;127;48.770;9.212;2023-06-24T11:21:19;38.40;99.90
285;DHT22;127;48.770;9.212;2023-06-24T11:23:48;38.30;99.90
285;DHT22;127;48.770;9.212;2023-06-24T11:26:20;38.40;99.90
285;DHT22;127;48.770;9.212;2023-06-24T11:28:49;38.70;99.90
285;DHT22;127;48.770;9.212;2023-06-24T11:31:18;38.20;99.90
285;DHT22;127;48.770;9.212;2023-06-24T11:33:48;37.60;99.90
285;DHT22;127;48.770;9.212;2023-06-24T11:36:18;37.90;99.90
285;DHT22;127;48.770;9.212;2023-06-24T11:38:47;38.60;99.90
285;DHT22;127;48.770;9.212;2023-06-24T11:41:15;37.50;99.90
285;DHT22;127;48.770;9.212;2023-06-24T11:43:47;37.70;99.90
285;DHT22;127;48.770;9.212;2023-06-24T11:46:21;36.90;99.90
285;DHT22;127;48.770;9.212;2023-06-24T11:48:49;34.50;99.90
285;DHT22;127;48.770;9.212;2023-06-24T11:51:18;35.60;99.90
285;DHT22;127;48.770;9.212;2023-06-24T11:53:47;36.10;99.90
285;DHT22;127;48.770;9.212;2023-06-24T11:56:16;33.80;99.90
285;DHT22;127;48.770;9.212;2023-06-24T11:58:48;34.30;99.90
285;DHT22;127;48.770;9.212;2023-06-24T12:01:17;34.20;99.90
285;DHT22;127;48.770;9.212;2023-06-24T12:03:46;35.70;99.90
285;DHT22;127;48.770;9.212;2023-06-24T12:06:16;37.50;99.90
285;DHT22;127;48.770;9.212;2023-06-24T12:08:48;36.10;99.90
285;DHT22;127;48.770;9.212;2023-06-24T12:11:16;35.00;99.90
285;DHT22;127;48.770;9.212;2023-06-24T12:13:48;35.40;99.90
285;DHT22;127;48.770;9.212;2023-06-24T12:16:17;36.00;99.90
285;DHT22;127;48.770;9.212;2023-06-24T12:18:45;36.10;99.90
285;DHT22;127;48.770;9.212;2023-06-24T12:21:14;37.00;99.90
285;DHT22;127;48.770;9.212;2023-06-24T12:23:43;37.50;99.90
285;DHT22;127;48.770;9.212;2023-06-24T12:26:12;38.50;98.40
285;DHT22;127;48.770;9.212;2023-06-24T12:28:41;37.70;97.90
285;DHT22;127;48.770;9.212;2023-06-24T12:31:12;36.60;99.90
285;DHT22;127;48.770;9.212;2023-06-24T12:33:41;36.10;99.50
285;DHT22;127;48.770;9.212;2023-06-24T12:36:09;37.30;97.40
285;DHT22;127;48.770;9.212;2023-06-24T12:38:38;38.40;95.10
285;DHT22;127;48.770;9.212;2023-06-24T12:41:07;38.70;93.90
285;DHT22;127;48.770;9.212;2023-06-24T12:43:35;40.20;91.10
285;DHT22;127;48.770;9.212;2023-06-24T12:46:04;38.90;94.60
285;DHT22;127;48.770;9.212;2023-06-24T12:48:36;37.70;95.60
285;DHT22;127;48.770;9.212;2023-06-24T12:51:04;39.40;90.60
285;DHT22;127;48.770;9.212;2023-06-24T12:53:33;40.00;86.10
285;DHT22;127;48.770;9.212;2023-06-24T12:56:03;39.50;86.10
285;DHT22;127;48.770;9.212;2023-06-24T12:58:32;40.10;83.10
285;DHT22;127;48.770;9.212;2023-06-24T13:01:00;39.70;81.60
285;DHT22;127;48.770;9.212;2023-06-24T13:03:29;39.30;84.40
285;DHT22;127;48.770;9.212;2023-06-24T13:06:00;40.00;77.90
285;DHT22;127;48.770;9.212;2023-06-24T13:08:31;40.40;73.50
285;DHT22;127;48.770;9.212;2023-06-24T13:11:00;40.50;75.40
285;DHT22;127;48.770;9.212;2023-06-24T13:13:29;38.60;78.00
285;DHT22;127;48.770;9.212;2023-06-24T13:15:57;39.20;77.30
285;DHT22;127;48.770;9.212;2023-06-24T13:18:26;39.90;65.70
285;DHT22;127;48.770;9.212;2023-06-24T13:20:54;40.60;61.90
285;DHT22;127;48.770;9.212;2023-06-24T13:23:29;40.00;61.60
285;DHT22;127;48.770;9.212;2023-06-24T13:25:59;40.30;61.70
285;DHT22;127;48.770;9.212;2023-06-24T13:28:28;37.50;72.20
285;DHT22;127;48.770;9.212;2023-06-24T13:30:57;38.60;61.00
285;DHT22;127;48.770;9.212;2023-06-24T13:33:26;40.10;61.60
285;DHT22;127;48.770;9.212;2023-06-24T13:35:55;39.80;61.70
285;DHT22;127;48.770;9.212;2023-06-24T13:38:24;38.50;66.60
285;DHT22;127;48.770;9.212;2023-06-24T13:40:55;38.40;60.30
285;DHT22;127;48.770;9.212;2023-06-24T13:43:24;39.30;61.20
285;DHT22;127;48.770;9.212;2023-06-24T13:45:53;39.40;65.20
285;DHT22;127;48.770;9.212;2023-06-24T13:48:22;39.70;61.20
285;DHT22;127;48.770;9.212;2023-06-24T13:50:51;40.30;61.90
285;DHT22;127;48.770;9.212;2023-06-24T13:53:20;40.80;65.20
285;DHT22;127;48.770;9.212;2023-06-24T13:55:49;40.80;67.60
285;DHT22;127;48.770;9.212;2023-06-24T13:58:20;39.80;62.20
285;DHT22;127;48.770;9.212;2023-06-24T14:00:49;38.40;60.60
285;DHT22;127;48.770;9.212;2023-06-24T14:03:18;39.20;61.20
285;DHT22;127;48.770;9.212;2023-06-24T14:05:46;37.70;59.80
285;DHT22;127;48.770;9.212;2023-06-24T14:08:15;37.70;59.80
285;DHT22;127;48.770;9.212;2023-06-24T14:10:44;35.80;58.90
285;DHT22;127;48.770;9.212;2023-06-24T14:13:12;35.40;62.90
285;DHT22;127;48.770;9.212;2023-06-24T14:15:44;36.60;61.40
285;DHT22;127;48.770;9.212;2023-06-24T14:18:12;37.30;60.50
285;DHT22;127;48.770;9.212;2023-06-24T14:20:41;37.90;59.90
285;DHT22;127;48.770;9.212;2023-06-24T14:23:10;36.30;61.20
285;DHT22;127;48.770;9.212;2023-06-24T14:25:39;37.30;59.60
285;DHT22;127;48.770;9.212;2023-06-24T14:28:08;36.50;59.10
285;DHT22;127;48.770;9.212;2023-06-24T14:30:36;36.50;59.00
285;DHT22;127;48.770;9.212;2023-06-24T14:33:10;36.90;66.40
285;DHT22;127;48.770;9.212;2023-06-24T14:35:39;37.30;59.70
285;DHT22;127;48.770;9.212;2023-06-24T14:38:07;38.20;62.80
285;DHT22;127;48.770;9.212;2023-06-24T14:40:36;38.40;65.10
285;DHT22;127;48.770;9.212;2023-06-24T14:43:05;38.20;60.30
285;DHT22;127;48.770;9.212;2023-06-24T14:45:33;37.70;60.20
285;DHT22;127;48.770;9.212;2023-06-24T14:48:02;37.00;60.10
285;DHT22;127;48.770;9.212;2023-06-24T14:50:34;36.50;59.60
285;DHT22;127;48.770;9.212;2023-06-24T14:53:03;36.00;58.80
285;DHT22;127;48.770;9.212;2023-06-24T14:55:32;36.70;62.30
285;DHT22;127;48.770;9.212;2023-06-24T14:58:00;37.00;60.10
285;DHT22;127;48.770;9.212;2023-06-24T15:00:29;36.00;64.90
285;DHT22;127;48.770;9.212;2023-06-24T15:02:58;35.30;59.00
285;DHT22;127;48.770;9.212;2023-06-24T15:05:27;33.70;65.80
285;DHT22;127;48.770;9.212;2023-06-24T15:07:58;32.60;73.80
285;DHT22;127;48.770;9.212;2023-06-24T15:10:27;31.80;75.80
285;DHT22;127;48.770;9.212;2023-06-24T15:12:56;32.50;73.90
285;DHT22;127;48.770;9.212;2023-06-24T15:15:28;33.20;71.30
285;DHT22;127;48.770;9.212;2023-06-24T15:17:57;34.20;66.60
285;DHT22;127;48.770;9.212;2023-06-24T15:20:26;35.00;60.90
285;DHT22;127;48.770;9.212;2023-06-24T15:22:58;35.40;62.80
285;DHT22;127;48.770;9.212;2023-06-24T15:25:28;35.40;60.80
285;DHT22;127;48.770;9.212;2023-06-24T15:27:58;35.40;61.60
285;DHT22;127;48.770;9.212;2023-06-24T15:30:27;36.00;59.80
285;DHT22;127;48.770;9.212;2023-06-24T15:32:55;36.30;58.90
285;DHT22;127;48.770;9.212;2023-06-24T15:35:24;36.00;58.70
285;DHT22;127;48.770;9.212;2023-06-24T15:37:53;35.50;58.70
285;DHT22;127;48.770;9.212;2023-06-24T15:40:24;35.20;58.40
285;DHT22;127;48.770;9.212;2023-06-24T15:42:53;35.80;59.50
285;DHT22;127;48.770;9.212;2023-06-24T15:45:21;35.20;58.30
285;DHT22;127;48.770;9.212;2023-06-24T15:47:50;35.50;59.30
285;DHT22;127;48.770;9.212;2023-06-24T15:50:19;35.00;58.20
285;DHT22;127;48.770;9.212;2023-06-24T15:52:52;34.90;58.80
285;DHT22;127;48.770;9.212;2023-06-24T15:55:23;34.20;62.60
285;DHT22;127;48.770;9.212;2023-06-24T15:57:52;33.50;63.40
285;DHT22;127;48.770;9.212;2023-06-24T16:00:21;32.40;73.50
285;DHT22;127;48.770;9.212;2023-06-24T16:02:51;33.10;73.60
285;DHT22;127;48.770;9.212;2023-06-24T16:05:19;33.30;70.70
285;DHT22;127;48.770;9.212;2023-06-24T16:07:48;34.00;64.30
285;DHT22;127;48.770;9.212;2023-06-24T16:10:17;33.90;64.20
285;DHT22;127;48.770;9.212;2023-06-24T16:12:48;33.30;67.10
285;DHT22;127;48.770;9.212;2023-06-24T16:15:17;33.10;70.50
285;DHT22;127;48.770;9.212;2023-06-24T16:17:48;33.60;70.70
285;DHT22;127;48.770;9.212;2023-06-24T16:20:17;33.40;69.40
285;DHT22;127;48.770;9.212;2023-06-24T16:22:47;33.50;73.10
285;DHT22;127;48.770;9.212;2023-06-24T16:25:20;33.20;69.60
285;DHT22;127;48.770;9.212;2023-06-24T16:27:54;33.50;76.40
285;DHT22;127;48.770;9.212;2023-06-24T16:30:23;33.70;67.00
285;DHT22;127;48.770;9.212;2023-06-24T16:32:52;34.40;60.70
285;DHT22;127;48.770;9.212;2023-06-24T16:35:25;34.00;64.60
285;DHT22;127;48.770;9.212;2023-06-24T16:37:53;32.90;69.60
285;DHT22;127;48.770;9.212;2023-06-24T16:40:22;32.30;72.60
285;DHT22;127;48.770;9.212;2023-06-24T16:42:53;32.80;69.70
285;DHT22;127;48.770;9.212;2023-06-24T16:45:22;31.90;73.40
285;DHT22;127;48.770;9.212;2023-06-24T16:47:54;30.90;78.80
285;DHT22;127;48.770;9.212;2023-06-24T16:50:22;31.00;77.30
285;DHT22;127;48.770;9.212;2023-06-24T16:52:51;30.90;78.90
285;DHT22;127;48.770;9.212;2023-06-24T16:55:21;31.10;80.40
285;DHT22;127;48.770;9.212;2023-06-24T16:57:56;31.70;81.20
285;DHT22;127;48.770;9.212;2023-06-24T17:00:25;32.30;74.30
285;DHT22;127;48.770;9.212;2023-06-24T17:02:58;31.90;75.80